createdAt,value
2019-04-25T00:00:51.420Z,13.90
2019-04-25T00:03:20.066Z,13.80
2019-04-25T00:05:46.893Z,13.80
2019-04-25T00:08:13.863Z,13.70
2019-04-25T00:10:42.560Z,13.70
2019-04-25T00:13:09.308Z,13.60
2019-04-25T00:15:36.280Z,13.60
2019-04-25T00:18:03.041Z,13.50
2019-04-25T00:20:31.678Z,13.50
2019-04-25T00:23:03.046Z,13.40
2019-04-25T00:25:37.382Z,13.40
2019-04-25T00:28:05.961Z,13.30
2019-04-25T00:30:32.814Z,13.30
2019-04-25T00:32:59.516Z,13.20
2019-04-25T00:35:28.020Z,13.10
2019-04-25T00:37:54.726Z,13.10
2019-04-25T00:40:21.977Z,13.10
2019-04-25T00:42:48.776Z,13.00
2019-04-25T00:45:15.471Z,13.00
2019-04-25T00:47:43.521Z,12.90
2019-04-25T00:50:11.946Z,12.90
2019-04-25T00:52:38.761Z,12.80
2019-04-25T00:55:05.817Z,12.80
2019-04-25T00:57:32.560Z,12.70
2019-04-25T01:00:01.864Z,12.70
2019-04-25T01:02:31.406Z,12.60
2019-04-25T01:04:58.366Z,12.50
2019-04-25T01:07:25.042Z,12.50
2019-04-25T01:09:53.378Z,12.40
2019-04-25T01:12:21.586Z,12.40
2019-04-25T01:14:48.480Z,12.40
2019-04-25T01:17:15.293Z,12.40
2019-04-25T01:19:42.056Z,12.30
2019-04-25T01:22:08.957Z,12.30
2019-04-25T01:24:35.712Z,12.30
2019-04-25T01:27:03.323Z,12.20
2019-04-25T01:29:33.378Z,12.20
2019-04-25T01:32:00.532Z,12.20
2019-04-25T01:34:29.032Z,12.20
2019-04-25T01:37:04.194Z,12.20
2019-04-25T01:39:48.925Z,12.10
2019-04-25T01:42:20.590Z,12.10
2019-04-25T01:44:49.504Z,12.10
2019-04-25T01:47:16.899Z,12.00
2019-04-25T01:49:43.956Z,12.00
2019-04-25T01:52:10.851Z,12.00
2019-04-25T01:54:37.561Z,12.00
2019-04-25T01:57:04.635Z,12.00
2019-04-25T01:59:31.354Z,12.00
2019-04-25T02:01:58.868Z,12.00
2019-04-25T02:04:25.753Z,12.00
2019-04-25T02:06:54.499Z,12.00
2019-04-25T02:09:21.180Z,12.00
2019-04-25T02:11:59.061Z,12.10
2019-04-25T02:14:25.798Z,12.00
2019-04-25T02:16:53.089Z,12.00
2019-04-25T02:19:21.259Z,12.00
2019-04-25T02:21:47.961Z,12.00
2019-04-25T02:24:14.774Z,12.00
2019-04-25T02:26:41.678Z,11.90
2019-04-25T02:29:08.569Z,11.90
2019-04-25T02:31:35.274Z,11.90
2019-04-25T02:34:03.649Z,11.80
2019-04-25T02:36:30.561Z,11.80
2019-04-25T02:39:01.144Z,11.80
2019-04-25T02:41:25.971Z,11.70
2019-04-25T02:43:56.357Z,11.70
2019-04-25T02:46:28.649Z,11.70
2019-04-25T02:49:02.471Z,11.60
2019-04-25T02:51:34.845Z,11.60
2019-04-25T02:54:02.760Z,11.60
2019-04-25T02:56:34.803Z,11.60
2019-04-25T02:58:58.629Z,11.60
2019-04-25T03:01:26.256Z,11.50
2019-04-25T03:03:54.538Z,11.50
2019-04-25T03:06:21.574Z,11.50
2019-04-25T03:08:48.393Z,11.60
2019-04-25T03:11:15.336Z,11.50
2019-04-25T03:13:44.150Z,11.40
2019-04-25T03:16:11.123Z,11.40
2019-04-25T03:18:48.652Z,11.40
2019-04-25T03:21:25.021Z,11.30
2019-04-25T03:23:51.526Z,11.30
2019-04-25T03:26:18.261Z,11.30
2019-04-25T03:28:45.093Z,11.30
2019-04-25T03:31:18.693Z,11.20
2019-04-25T03:33:40.770Z,11.20
2019-04-25T03:36:07.835Z,11.20
2019-04-25T03:38:34.809Z,11.20
2019-04-25T03:41:02.553Z,11.10
2019-04-25T03:43:29.883Z,11.10
2019-04-25T03:45:56.574Z,11.10
2019-04-25T03:48:25.076Z,11.10
2019-04-25T03:50:51.918Z,11.00
2019-04-25T03:53:18.611Z,11.00
2019-04-25T03:55:45.329Z,11.00
2019-04-25T03:58:13.124Z,11.00
2019-04-25T04:00:40.653Z,11.00
2019-04-25T04:03:07.913Z,10.90
2019-04-25T04:05:34.829Z,10.80
2019-04-25T04:08:04.509Z,10.90
2019-04-25T04:10:33.257Z,10.70
2019-04-25T04:13:00.201Z,10.80
2019-04-25T04:15:26.896Z,10.80
2019-04-25T04:17:58.426Z,10.80
2019-04-25T04:20:43.726Z,10.80
2019-04-25T04:23:13.486Z,10.80
2019-04-25T04:25:40.689Z,10.80
2019-04-25T04:28:07.677Z,10.80
2019-04-25T04:30:34.513Z,10.80
2019-04-25T04:33:01.186Z,10.80
2019-04-25T04:35:28.252Z,10.90
2019-04-25T04:37:54.968Z,10.90
2019-04-25T04:40:21.684Z,10.90
2019-04-25T04:42:48.429Z,10.90
2019-04-25T04:45:15.779Z,10.90
2019-04-25T04:47:43.434Z,11.00
2019-04-25T04:50:10.583Z,11.00
2019-04-25T04:52:37.442Z,11.00
2019-04-25T04:55:08.628Z,11.10
2019-04-25T04:57:36.265Z,11.10
2019-04-25T05:00:05.817Z,11.20
2019-04-25T05:02:51.112Z,11.20
2019-04-25T05:05:19.598Z,11.30
2019-04-25T05:07:50.887Z,11.40
2019-04-25T05:10:19.065Z,11.40
2019-04-25T05:12:46.240Z,11.50
2019-04-25T05:15:15.320Z,11.50
2019-04-25T05:17:41.491Z,11.60
2019-04-25T05:20:08.369Z,11.70
2019-04-25T05:22:35.126Z,11.80
2019-04-25T05:25:03.365Z,12.00
2019-04-25T05:27:37.688Z,12.10
2019-04-25T05:29:58.928Z,12.20
2019-04-25T05:32:25.657Z,12.30
2019-04-25T05:34:53.278Z,12.40
2019-04-25T05:37:20.142Z,12.50
2019-04-25T05:39:46.882Z,12.60
2019-04-25T05:42:16.991Z,12.70
2019-04-25T05:44:44.068Z,12.90
2019-04-25T05:47:10.865Z,13.00
2019-04-25T05:49:37.672Z,13.00
2019-04-25T05:52:04.383Z,13.10
2019-04-25T05:54:31.093Z,13.20
2019-04-25T05:56:57.832Z,13.30
2019-04-25T05:59:25.722Z,13.30
2019-04-25T06:01:53.801Z,13.40
2019-04-25T06:04:21.029Z,13.50
2019-04-25T06:06:47.845Z,13.60
2019-04-25T06:09:28.693Z,13.70
2019-04-25T06:12:09.288Z,13.80
2019-04-25T06:14:36.069Z,13.90
2019-04-25T06:17:04.581Z,14.00
2019-04-25T06:19:47.836Z,14.00
2019-04-25T06:22:19.965Z,14.10
2019-04-25T06:24:49.270Z,14.20
2019-04-25T06:27:17.745Z,14.40
2019-04-25T06:29:57.636Z,14.50
2019-04-25T06:32:15.663Z,14.60
2019-04-25T06:34:44.179Z,14.70
2019-04-25T06:37:10.917Z,14.70
2019-04-25T06:39:37.791Z,14.80
2019-04-25T06:42:04.560Z,14.80
2019-04-25T06:44:34.424Z,14.90
2019-04-25T06:47:20.240Z,15.00
2019-04-25T06:49:47.949Z,15.10
2019-04-25T06:52:14.661Z,15.20
2019-04-25T06:54:41.442Z,15.30
2019-04-25T06:57:08.157Z,15.40
2019-04-25T06:59:37.827Z,15.50
2019-04-25T07:02:04.243Z,15.60
2019-04-25T07:04:31.322Z,15.70
2019-04-25T07:07:09.612Z,15.80
2019-04-25T07:09:28.655Z,15.80
2019-04-25T07:11:55.320Z,15.90
2019-04-25T07:14:24.528Z,15.90
2019-04-25T07:16:50.592Z,15.90
2019-04-25T07:19:17.634Z,16.00
2019-04-25T07:21:44.475Z,16.10
2019-04-25T07:24:11.252Z,16.10
2019-04-25T07:26:56.566Z,16.20
2019-04-25T07:29:26.020Z,16.30
2019-04-25T07:32:01.260Z,16.30
2019-04-25T07:34:29.742Z,16.40
2019-04-25T07:36:56.436Z,16.50
2019-04-25T07:39:23.641Z,16.70
2019-04-25T07:41:50.583Z,16.80
2019-04-25T07:44:17.335Z,16.90
2019-04-25T07:46:44.123Z,17.00
2019-04-25T07:49:10.905Z,17.10
2019-04-25T07:51:37.604Z,17.10
2019-04-25T07:54:04.625Z,17.30
2019-04-25T07:56:31.447Z,17.40
2019-04-25T07:58:58.214Z,17.50
2019-04-25T08:01:24.999Z,17.60
2019-04-25T08:03:51.705Z,17.70
2019-04-25T08:06:18.404Z,17.80
2019-04-25T08:08:45.266Z,18.00
2019-04-25T08:11:13.851Z,18.10
2019-04-25T08:13:57.672Z,18.10
2019-04-25T08:16:26.182Z,18.20
2019-04-25T08:18:53.999Z,18.40
2019-04-25T08:21:21.704Z,18.40
2019-04-25T08:23:48.706Z,18.50
2019-04-25T08:26:15.609Z,18.60
2019-04-25T08:28:54.018Z,18.70
2019-04-25T08:31:10.969Z,18.80
2019-04-25T08:33:37.753Z,18.80
2019-04-25T08:36:09.146Z,18.90
2019-04-25T08:38:34.489Z,19.10
2019-04-25T08:41:01.508Z,19.10
2019-04-25T08:43:28.216Z,19.20
2019-04-25T08:45:54.988Z,19.30
2019-04-25T08:48:23.515Z,19.40
2019-04-25T08:50:53.566Z,19.60
2019-04-25T08:53:23.775Z,19.80
2019-04-25T08:55:58.176Z,20.00
2019-04-25T08:58:35.663Z,20.20
2019-04-25T09:01:05.114Z,20.30
2019-04-25T09:03:40.148Z,20.50
2019-04-25T09:06:07.733Z,20.70
2019-04-25T09:08:36.004Z,20.90
2019-04-25T09:11:03.486Z,21.10
2019-04-25T09:13:30.301Z,21.20
2019-04-25T09:15:57.004Z,21.30
2019-04-25T09:18:24.085Z,21.30
2019-04-25T09:20:50.859Z,21.40
2019-04-25T09:23:17.565Z,21.50
2019-04-25T09:25:45.801Z,21.60
2019-04-25T09:28:14.257Z,21.80
2019-04-25T09:30:41.213Z,21.90
2019-04-25T09:33:07.913Z,22.00
2019-04-25T09:35:36.024Z,22.10
2019-04-25T09:38:03.460Z,22.10
2019-04-25T09:40:30.361Z,22.20
2019-04-25T09:42:57.283Z,22.20
2019-04-25T09:45:28.703Z,22.20
2019-04-25T09:48:05.793Z,22.20
2019-04-25T09:50:34.465Z,22.10
2019-04-25T09:53:01.123Z,22.20
2019-04-25T09:55:47.185Z,22.30
2019-04-25T09:58:23.820Z,22.40
2019-04-25T10:00:55.298Z,22.50
2019-04-25T10:03:23.390Z,22.70
2019-04-25T10:05:50.314Z,22.80
2019-04-25T10:08:17.060Z,23.00
2019-04-25T10:10:44.608Z,23.00
2019-04-25T10:13:11.497Z,23.00
2019-04-25T10:15:47.968Z,23.00
2019-04-25T10:18:15.305Z,23.10
2019-04-25T10:20:42.975Z,23.20
2019-04-25T10:23:10.688Z,23.10
2019-04-25T10:25:38.074Z,23.10
2019-04-25T10:28:05.512Z,23.10
2019-04-25T10:30:32.209Z,23.10
2019-04-25T10:32:58.953Z,23.20
2019-04-25T10:35:25.729Z,23.20
2019-04-25T10:37:53.754Z,23.40
2019-04-25T10:40:23.394Z,23.60
2019-04-25T10:42:50.779Z,23.70
2019-04-25T10:45:23.166Z,23.80
2019-04-25T10:47:46.711Z,23.70
2019-04-25T10:50:15.233Z,23.90
2019-04-25T10:52:42.101Z,24.10
2019-04-25T10:55:08.805Z,24.40
2019-04-25T10:57:35.581Z,24.60
2019-04-25T11:00:09.674Z,24.70
2019-04-25T11:02:36.605Z,24.60
2019-04-25T11:05:06.931Z,24.60
2019-04-25T11:07:33.995Z,24.50
2019-04-25T11:10:00.944Z,24.50
2019-04-25T11:12:27.701Z,24.50
2019-04-25T11:14:56.105Z,24.50
2019-04-25T11:17:24.236Z,24.50
2019-04-25T11:19:51.214Z,24.50
2019-04-25T11:22:17.903Z,24.50
2019-04-25T11:24:44.644Z,24.50
2019-04-25T11:27:11.346Z,24.60
2019-04-25T11:29:38.170Z,24.70
2019-04-25T11:32:05.772Z,24.70
2019-04-25T11:34:32.705Z,24.70
2019-04-25T11:36:59.583Z,24.70
2019-04-25T11:39:33.916Z,24.70
2019-04-25T11:42:02.297Z,24.70
2019-04-25T11:44:29.101Z,24.80
2019-04-25T11:46:56.005Z,24.70
2019-04-25T11:49:23.833Z,25.00
2019-04-25T11:51:50.742Z,24.70
2019-04-25T11:54:17.418Z,24.50
2019-04-25T11:56:45.783Z,24.50
2019-04-25T11:59:13.736Z,24.40
2019-04-25T12:01:42.521Z,24.40
2019-04-25T12:04:09.961Z,24.30
2019-04-25T12:06:36.638Z,24.30
2019-04-25T12:09:04.565Z,24.10
2019-04-25T12:11:31.354Z,24.10
2019-04-25T12:13:58.039Z,24.10
2019-04-25T12:16:25.148Z,24.10
2019-04-25T12:18:54.810Z,24.10
2019-04-25T12:21:20.613Z,24.20
2019-04-25T12:23:47.848Z,24.40
2019-04-25T12:26:15.477Z,24.70
2019-04-25T12:28:42.185Z,25.10
2019-04-25T12:31:08.897Z,25.40
2019-04-25T12:33:35.655Z,25.60
2019-04-25T12:36:02.352Z,25.60
2019-04-25T12:38:29.074Z,25.60
2019-04-25T12:40:55.953Z,25.60
2019-04-25T12:43:24.462Z,25.60
2019-04-25T12:45:52.976Z,25.40
2019-04-25T12:48:19.772Z,25.40
2019-04-25T12:50:46.576Z,25.30
2019-04-25T12:53:13.948Z,25.30
2019-04-25T12:55:40.781Z,25.30
2019-04-25T12:58:07.466Z,25.20
2019-04-25T13:00:35.404Z,25.10
2019-04-25T13:03:04.283Z,25.10
2019-04-25T13:05:31.342Z,25.00
2019-04-25T13:07:59.596Z,24.80
2019-04-25T13:10:26.702Z,24.70
2019-04-25T13:12:55.243Z,24.60
2019-04-25T13:15:23.499Z,24.50
2019-04-25T13:17:50.398Z,24.40
2019-04-25T13:20:17.176Z,24.30
2019-04-25T13:22:43.914Z,24.30
2019-04-25T13:25:14.199Z,24.30
2019-04-25T13:27:48.461Z,24.30
2019-04-25T13:30:29.308Z,24.30
2019-04-25T13:33:00.387Z,24.30
2019-04-25T13:35:28.904Z,24.30
2019-04-25T13:37:55.712Z,24.30
2019-04-25T13:40:22.441Z,24.20
2019-04-25T13:42:49.141Z,24.20
2019-04-25T13:45:16.176Z,24.10
2019-04-25T13:47:42.890Z,24.00
2019-04-25T13:50:09.703Z,24.00
2019-04-25T13:52:37.196Z,24.00
2019-04-25T13:55:04.853Z,24.00
2019-04-25T13:57:32.341Z,24.00
2019-04-25T13:59:59.257Z,24.10
2019-04-25T14:02:26.735Z,24.20
2019-04-25T14:04:53.637Z,24.20
2019-04-25T14:07:20.674Z,24.20
2019-04-25T14:09:48.514Z,24.20
2019-04-25T14:12:15.212Z,24.20
2019-04-25T14:14:41.980Z,24.20
2019-04-25T14:17:13.921Z,24.20
2019-04-25T14:19:45.702Z,24.30
2019-04-25T14:22:12.509Z,24.30
2019-04-25T14:24:39.165Z,24.30
2019-04-25T14:27:06.547Z,24.40
2019-04-25T14:29:33.329Z,24.30
2019-04-25T14:32:00.037Z,24.40
2019-04-25T14:34:27.779Z,24.30
2019-04-25T14:36:54.573Z,24.20
2019-04-25T14:39:21.373Z,24.10
2019-04-25T14:41:48.343Z,24.00
2019-04-25T14:44:15.067Z,24.00
2019-04-25T14:46:41.773Z,24.10
2019-04-25T14:49:08.670Z,24.10
2019-04-25T14:51:35.336Z,24.30
2019-04-25T14:54:03.838Z,24.30
2019-04-25T14:56:48.756Z,24.40
2019-04-25T14:59:15.829Z,24.40
2019-04-25T15:01:45.014Z,24.40
2019-04-25T15:04:11.297Z,24.40
2019-04-25T15:06:38.010Z,24.40
2019-04-25T15:09:06.151Z,24.50
2019-04-25T15:11:33.573Z,24.50
2019-04-25T15:14:00.375Z,24.40
2019-04-25T15:16:27.185Z,24.40
2019-04-25T15:18:54.041Z,24.40
2019-04-25T15:21:20.745Z,24.40
2019-04-25T15:23:59.377Z,24.40
2019-04-25T15:26:15.992Z,24.40
2019-04-25T15:28:43.467Z,24.50
2019-04-25T15:31:10.373Z,24.50
2019-04-25T15:33:37.162Z,24.60
2019-04-25T15:36:08.462Z,24.70
2019-04-25T15:38:39.535Z,24.80
2019-04-25T15:41:08.094Z,24.70
2019-04-25T15:43:39.400Z,24.60
2019-04-25T15:46:13.984Z,24.40
2019-04-25T15:48:40.796Z,24.20
2019-04-25T15:51:07.502Z,24.10
2019-04-25T15:53:35.019Z,24.00
2019-04-25T15:56:01.776Z,23.80
2019-04-25T15:58:28.445Z,23.70
2019-04-25T16:00:55.640Z,23.60
2019-04-25T16:03:22.319Z,23.50
2019-04-25T16:05:49.025Z,23.60
2019-04-25T16:08:15.797Z,23.60
2019-04-25T16:10:42.544Z,23.60
2019-04-25T16:13:09.335Z,23.50
2019-04-25T16:15:36.164Z,23.40
2019-04-25T16:18:02.838Z,23.40
2019-04-25T16:20:29.643Z,23.40
2019-04-25T16:22:56.396Z,23.30
2019-04-25T16:25:23.195Z,23.20
2019-04-25T16:27:49.999Z,23.20
2019-04-25T16:30:19.546Z,23.10
2019-04-25T16:32:46.255Z,23.10
2019-04-25T16:35:13.029Z,23.10
2019-04-25T16:37:39.701Z,23.10
2019-04-25T16:40:06.553Z,23.20
2019-04-25T16:42:33.769Z,23.20
2019-04-25T16:45:00.629Z,23.20
2019-04-25T16:47:29.902Z,23.20
2019-04-25T16:49:57.122Z,23.10
2019-04-25T16:52:24.512Z,22.90
2019-04-25T16:54:51.188Z,22.80
2019-04-25T16:57:17.958Z,22.80
2019-04-25T16:59:44.747Z,22.70
2019-04-25T17:02:11.455Z,22.70
2019-04-25T17:04:38.229Z,22.60
2019-04-25T17:07:05.567Z,22.60
2019-04-25T17:09:32.320Z,22.50
2019-04-25T17:11:59.103Z,22.30
2019-04-25T17:14:27.610Z,22.10
2019-04-25T17:16:56.116Z,21.90
2019-04-25T17:19:24.737Z,21.80
2019-04-25T17:21:51.441Z,21.60
2019-04-25T17:24:18.150Z,21.50
2019-04-25T17:26:44.937Z,21.30
2019-04-25T17:29:14.072Z,21.20
2019-04-25T17:31:42.699Z,21.00
2019-04-25T17:34:14.398Z,20.90
2019-04-25T17:36:57.903Z,20.80
2019-04-25T17:39:42.176Z,20.60
2019-04-25T17:42:09.082Z,20.50
2019-04-25T17:44:36.328Z,20.40
2019-04-25T17:47:06.463Z,20.30
2019-04-25T17:49:32.767Z,20.30
2019-04-25T17:51:59.689Z,20.20
2019-04-25T17:54:26.469Z,20.10
2019-04-25T17:56:53.137Z,19.90
2019-04-25T17:59:19.881Z,19.80
2019-04-25T18:01:46.658Z,19.70
2019-04-25T18:04:13.368Z,19.60
2019-04-25T18:06:40.068Z,19.50
2019-04-25T18:09:08.128Z,19.40
2019-04-25T18:11:35.819Z,19.40
2019-04-25T18:14:03.149Z,19.30
2019-04-25T18:16:34.829Z,19.20
2019-04-25T18:19:15.381Z,19.10
2019-04-25T18:21:42.854Z,19.00
2019-04-25T18:24:17.222Z,18.70
2019-04-25T18:26:45.800Z,18.60
2019-04-25T18:29:14.314Z,18.40
2019-04-25T18:31:41.626Z,18.30
2019-04-25T18:34:10.262Z,18.20
2019-04-25T18:36:47.807Z,18.10
2019-04-25T18:39:25.399Z,18.00
2019-04-25T18:41:59.706Z,17.90
2019-04-25T18:44:26.410Z,17.90
2019-04-25T18:46:53.381Z,17.80
2019-04-25T18:49:20.135Z,17.80
2019-04-25T18:51:56.511Z,17.80
2019-04-25T18:54:24.202Z,17.70
2019-04-25T18:56:55.506Z,17.70
2019-04-25T18:59:24.018Z,17.60
2019-04-25T19:01:52.589Z,17.50
2019-04-25T19:04:32.848Z,17.50
2019-04-25T19:06:59.654Z,17.40
2019-04-25T19:09:26.418Z,17.30
2019-04-25T19:11:53.145Z,17.20
2019-04-25T19:14:19.904Z,17.10
2019-04-25T19:16:47.572Z,17.00
2019-04-25T19:19:14.417Z,17.00
2019-04-25T19:21:41.625Z,16.90
2019-04-25T19:24:08.393Z,16.80
2019-04-25T19:26:35.107Z,16.70
2019-04-25T19:29:01.940Z,16.60
2019-04-25T19:31:28.657Z,16.60
2019-04-25T19:33:55.372Z,16.50
2019-04-25T19:36:22.126Z,16.40
2019-04-25T19:38:48.838Z,16.40
2019-04-25T19:41:17.382Z,16.40
2019-04-25T19:43:48.784Z,16.30
2019-04-25T19:46:15.493Z,16.30
2019-04-25T19:48:43.017Z,16.20
2019-04-25T19:51:09.803Z,16.20
2019-04-25T19:53:36.504Z,16.10
2019-04-25T19:56:03.235Z,16.10
2019-04-25T19:58:30.386Z,16.00
2019-04-25T20:00:57.210Z,15.90
2019-04-25T20:03:47.570Z,15.90
2019-04-25T20:06:17.257Z,15.90
2019-04-25T20:08:57.909Z,15.80
2019-04-25T20:11:26.422Z,16.50
2019-04-25T20:13:53.451Z,15.70
2019-04-25T20:16:20.296Z,15.70
2019-04-25T20:18:47.726Z,15.60
2019-04-25T20:21:17.276Z,15.60
2019-04-25T20:23:45.376Z,15.60
2019-04-25T20:26:12.527Z,15.60
2019-04-25T20:28:39.228Z,15.60
2019-04-25T20:31:06.104Z,15.50
2019-04-25T20:33:32.827Z,15.50
2019-04-25T20:36:00.105Z,15.50
2019-04-25T20:38:30.514Z,15.50
2019-04-25T20:40:57.523Z,15.50
2019-04-25T20:43:24.711Z,15.40
2019-04-25T20:45:52.177Z,15.30
2019-04-25T20:48:19.193Z,15.20
2019-04-25T20:50:48.750Z,15.20
2019-04-25T20:53:15.862Z,15.10
2019-04-25T20:55:42.777Z,15.00
2019-04-25T20:58:09.640Z,14.80
2019-04-25T21:00:40.001Z,14.90
2019-04-25T21:03:07.202Z,14.80
2019-04-25T21:05:34.426Z,14.70
2019-04-25T21:08:02.150Z,14.70
2019-04-25T21:10:28.874Z,14.70
2019-04-25T21:12:55.775Z,14.60
2019-04-25T21:15:27.541Z,14.50
2019-04-25T21:17:59.332Z,14.40
2019-04-25T21:20:26.118Z,14.40
2019-04-25T21:22:53.747Z,14.30
2019-04-25T21:25:20.692Z,14.30
2019-04-25T21:27:47.401Z,14.20
2019-04-25T21:30:14.207Z,14.10
2019-04-25T21:32:55.242Z,14.00
2019-04-25T21:35:22.706Z,14.00
2019-04-25T21:37:49.477Z,13.90
2019-04-25T21:40:29.836Z,13.90
2019-04-25T21:42:58.625Z,13.80
2019-04-25T21:45:25.563Z,13.80
2019-04-25T21:47:52.707Z,13.70
2019-04-25T21:50:20.852Z,13.70
2019-04-25T21:52:47.863Z,13.60
2019-04-25T21:55:14.861Z,13.60
2019-04-25T21:57:41.941Z,13.50
2019-04-25T22:00:11.303Z,13.50
2019-04-25T22:02:38.360Z,13.50
2019-04-25T22:05:05.446Z,13.40
2019-04-25T22:07:32.586Z,13.40
2019-04-25T22:09:59.604Z,13.40
2019-04-25T22:12:26.303Z,13.30
2019-04-25T22:14:53.021Z,13.30
2019-04-25T22:17:19.756Z,13.20
2019-04-25T22:19:46.913Z,13.20
2019-04-25T22:22:13.912Z,13.10
2019-04-25T22:24:40.653Z,13.10
2019-04-25T22:27:09.168Z,13.10
2019-04-25T22:29:37.769Z,13.10
2019-04-25T22:32:18.432Z,13.20
2019-04-25T22:34:58.150Z,13.20
2019-04-25T22:37:24.837Z,13.20
2019-04-25T22:39:51.907Z,13.20
2019-04-25T22:42:18.668Z,13.20
2019-04-25T22:44:45.476Z,13.20
2019-04-25T22:47:12.589Z,13.20
2019-04-25T22:49:39.446Z,13.20
2019-04-25T22:52:07.032Z,13.20
2019-04-25T22:54:33.827Z,13.10
2019-04-25T22:57:01.668Z,13.10
2019-04-25T22:59:29.147Z,13.10
2019-04-25T23:01:57.692Z,13.10
2019-04-25T23:04:26.492Z,13.00
2019-04-25T23:06:53.265Z,12.90
2019-04-25T23:09:20.020Z,12.80
2019-04-25T23:11:46.824Z,12.80
2019-04-25T23:14:13.897Z,12.80
2019-04-25T23:16:40.610Z,12.80
2019-04-25T23:19:07.478Z,12.70
2019-04-25T23:21:34.404Z,12.70
2019-04-25T23:24:01.146Z,12.60
2019-04-25T23:26:29.651Z,12.60
2019-04-25T23:29:00.918Z,12.50
2019-04-25T23:31:29.433Z,12.50
2019-04-25T23:33:56.428Z,12.50
2019-04-25T23:36:23.207Z,12.50
2019-04-25T23:38:49.939Z,12.50
2019-04-25T23:41:16.920Z,12.40
2019-04-25T23:43:43.697Z,12.40
2019-04-25T23:46:10.442Z,12.30
2019-04-25T23:48:37.553Z,12.30
2019-04-25T23:51:04.393Z,12.20
2019-04-25T23:53:31.387Z,12.20
2019-04-25T23:55:58.213Z,12.10
2019-04-25T23:58:24.916Z,12.10
